Time;durP1;ratioP1;P1;durP2;ratioP2;P2;SDS_P1;SDS_P2;PMS_P1;PMS_P2;Temp;Humidity;BMP_temperature;BMP_pressure;BME280_temperature;BME280_humidity;BME280_pressure;Samples;Min_cycle;Max_cycle;Signal;HPM_P1;HPM_P2
2023/12/24 00:00:06;;;;;;;5.38;4.05;;;;;;;10.61;50.06;96822.16;10284473;28;19955;-50
2023/12/24 00:05:05;;;;;;;4.90;4.50;;;;;;;10.60;50.58;96838.59;10283757;28;21150;-51
2023/12/24 00:10:05;;;;;;;4.60;4.20;;;;;;;10.53;50.32;96818.84;10283996;28;20066;-52
2023/12/24 00:15:05;;;;;;;5.35;4.68;;;;;;;10.43;49.91;96801.72;10282523;28;20045;-49
2023/12/24 00:20:05;;;;;;;6.72;4.95;;;;;;;10.65;50.14;96840.28;10283658;28;20049;-51
2023/12/24 00:25:05;;;;;;;6.20;5.55;;;;;;;10.46;50.18;96813.78;10283701;28;21052;-49
2023/12/24 00:30:05;;;;;;;5.18;4.78;;;;;;;10.33;50.54;96808.78;10282830;28;20064;-50
2023/12/24 00:35:04;;;;;;;5.05;4.65;;;;;;;10.51;49.67;96867.28;10283760;28;20049;-52
2023/12/24 00:40:03;;;;;;;5.10;4.60;;;;;;;10.43;50.00;96853.59;10283752;28;20057;-52
2023/12/24 00:45:04;;;;;;;5.30;4.80;;;;;;;10.49;50.49;96863.84;10282636;28;20140;-52
2023/12/24 00:50:04;;;;;;;5.47;4.97;;;;;;;10.54;49.07;96885.41;10283692;28;20528;-50
2023/12/24 00:55:07;;;;;;;5.60;5.10;;;;;;;10.54;49.86;96895.78;10281598;28;20105;-49
2023/12/24 01:00:06;;;;;;;4.95;4.45;;;;;;;10.29;50.46;96865.91;10283074;28;20057;-49
2023/12/24 01:05:07;;;;;;;4.97;4.57;;;;;;;10.08;50.06;96862.72;10279624;28;20517;-48
2023/12/24 01:10:06;;;;;;;6.90;4.95;;;;;;;10.39;49.84;96932.31;10282240;28;20065;-49
2023/12/24 01:15:06;;;;;;;6.35;5.15;;;;;;;10.31;49.96;96914.25;10282647;28;20580;-49
2023/12/24 01:20:18;;;;;;;13.00;8.13;;;;;;;10.28;49.76;96908.25;10282053;28;20167;-50
2023/12/24 01:25:17;;;;;;;9.02;5.63;;;;;;;10.18;49.75;96910.97;10282291;28;20073;-50
2023/12/24 01:30:16;;;;;;;8.63;5.85;;;;;;;10.27;50.19;96941.09;10281541;28;20121;-49
2023/12/24 01:35:15;;;;;;;5.88;5.30;;;;;;;10.18;51.13;96936.88;10282678;28;20072;-49
2023/12/24 01:40:14;;;;;;;4.82;4.43;;;;;;;9.84;50.54;96939.03;10282495;28;20036;-50
2023/12/24 01:45:13;;;;;;;6.10;5.50;;;;;;;9.99;50.15;96950.97;10281565;28;20105;-51
2023/12/24 01:50:12;;;;;;;6.75;5.63;;;;;;;10.10;49.72;96954.28;10283655;28;20029;-49
2023/12/24 01:55:11;;;;;;;11.05;9.75;;;;;;;10.18;50.22;96961.97;10288339;28;20036;-49
2023/12/24 02:00:11;;;;;;;7.28;5.82;;;;;;;10.14;50.68;96970.66;10289518;28;20121;-49
2023/12/24 02:05:10;;;;;;;7.60;6.40;;;;;;;9.97;50.50;96963.06;10288596;28;20125;-49
2023/12/24 02:10:09;;;;;;;7.80;5.03;;;;;;;9.91;51.69;96979.56;10285788;28;20116;-49
2023/12/24 02:15:08;;;;;;;6.15;5.53;;;;;;;9.43;52.15;96929.97;10287062;28;20500;-50
2023/12/24 02:20:07;;;;;;;7.88;5.13;;;;;;;9.64;51.80;96990.19;10285960;28;20066;-49
2023/12/24 02:25:07;;;;;;;;;;;;;;;9.68;51.68;97005.69;10288039;28;20124;-49
2023/12/24 02:30:10;;;;;;;6.75;5.68;;;;;;;9.63;51.69;96996.22;10286382;28;20415;-50
2023/12/24 02:35:11;;;;;;;7.68;6.00;;;;;;;9.28;52.62;96964.63;10287653;28;20061;-52
2023/12/24 02:40:10;;;;;;;6.07;5.40;;;;;;;9.33;51.58;96991.34;10288297;28;20069;-50
2023/12/24 02:45:09;;;;;;;10.30;6.97;;;;;;;8.25;52.37;96840.34;10286618;28;20069;-49
2023/12/24 02:50:08;;;;;;;;;;;;;;;9.24;52.81;97012.09;10288003;28;20062;-50
2023/12/24 02:55:07;;;;;;;11.30;8.65;;;;;;;9.15;53.55;97031.13;10284138;28;21519;-49
2023/12/24 03:00:08;;;;;;;13.40;9.85;;;;;;;7.86;55.12;96842.28;10286416;28;20129;-51
2023/12/24 03:05:07;;;;;;;16.45;11.30;;;;;;;8.77;55.21;97012.41;10285279;28;20068;-50
2023/12/24 03:10:06;;;;;;;15.38;9.43;;;;;;;8.72;56.29;97048.66;10285830;28;20076;-49
2023/12/24 03:15:07;;;;;;;10.75;8.25;;;;;;;8.63;55.45;97043.53;10284972;28;20125;-48
2023/12/24 03:20:07;;;;;;;49.42;23.85;;;;;;;8.73;55.09;97060.69;10283212;28;20052;-49
2023/12/24 03:25:06;;;;;;;41.28;22.02;;;;;;;8.71;55.20;97067.59;10286401;28;20058;-50
2023/12/24 03:30:06;;;;;;;18.33;12.23;;;;;;;8.88;54.44;97076.16;10326004;28;20064;-51
2023/12/24 03:35:05;;;;;;;22.38;14.30;;;;;;;8.94;54.16;97076.09;10285047;28;20123;-49
2023/12/24 03:40:05;;;;;;;21.55;13.40;;;;;;;8.99;53.89;97072.66;10285469;28;20113;-50
2023/12/24 03:45:04;;;;;;;15.88;11.20;;;;;;;8.92;54.44;97083.00;10283982;28;20126;-49
2023/12/24 03:50:05;;;;;;;17.38;11.88;;;;;;;8.66;54.85;97033.16;10284857;28;20117;-51
2023/12/24 03:55:04;;;;;;;15.88;11.02;;;;;;;8.98;55.74;97104.59;10284373;28;20469;-50
2023/12/24 04:00:04;;;;;;;14.18;10.43;;;;;;;8.90;55.33;97110.66;10281875;28;20045;-49
2023/12/24 04:05:04;;;;;;;15.18;9.57;;;;;;;8.68;55.49;97093.50;10281718;28;20531;-50
2023/12/24 04:10:04;;;;;;;20.08;13.90;;;;;;;8.75;56.26;97141.75;10283253;28;20067;-49
2023/12/24 04:15:05;;;;;;;23.58;15.05;;;;;;;8.75;56.45;97130.56;10283268;28;20060;-49
2023/12/24 04:20:05;;;;;;;21.42;14.13;;;;;;;8.67;57.36;97161.63;10282985;28;20136;-49
2023/12/24 04:25:05;;;;;;;15.70;12.15;;;;;;;8.62;57.45;97145.22;10284292;28;20121;-51
2023/12/24 04:30:04;;;;;;;19.08;12.80;;;;;;;8.70;57.35;97154.69;10284044;28;20054;-52
2023/12/24 04:35:05;;;;;;;24.58;13.48;;;;;;;8.54;58.59;97167.69;10284545;28;20045;-49
2023/12/24 04:40:05;;;;;;;21.58;13.18;;;;;;;8.42;58.42;97156.50;10283312;28;20523;-49
2023/12/24 04:45:04;;;;;;;18.48;12.45;;;;;;;7.27;58.72;96965.50;10280776;28;20062;-49
2023/12/24 04:50:04;;;;;;;18.67;11.52;;;;;;;7.31;59.21;97012.78;10282193;28;20136;-50
2023/12/24 04:55:04;;;;;;;12.43;9.93;;;;;;;8.09;59.71;97144.50;10283218;28;20129;-49
2023/12/24 05:00:05;;;;;;;10.50;7.70;;;;;;;7.90;59.53;97150.50;10282613;28;20109;-52
2023/12/24 05:05:04;;;;;;;11.35;7.05;;;;;;;8.34;58.94;97216.84;10282590;28;20121;-50
2023/12/24 05:10:04;;;;;;;10.70;8.13;;;;;;;8.49;58.04;97217.69;10281748;28;20053;-49
2023/12/24 05:15:03;;;;;;;;;;;;;;;8.67;56.62;97240.06;10283852;28;20050;-49
2023/12/24 05:20:02;;;;;;;6.57;5.80;;;;;;;8.24;56.95;97143.59;10281326;28;19965;-51
2023/12/24 05:25:01;;;;;;;5.82;5.03;;;;;;;8.82;55.92;97221.06;10283116;28;20109;-49
2023/12/24 05:30:00;;;;;;;5.43;4.35;;;;;;;8.93;55.30;97239.16;10290806;28;20718;-50
2023/12/24 05:34:59;;;;;;;6.50;5.40;;;;;;;8.92;54.24;97227.06;10290189;28;20194;-49
2023/12/24 05:39:58;;;;;;;6.25;4.65;;;;;;;8.96;53.62;97217.59;10289358;28;20049;-48
2023/12/24 05:44:57;;;;;;;5.00;4.43;;;;;;;9.10;53.07;97226.16;10289847;28;20205;-49
2023/12/24 05:49:55;;;;;;;5.30;4.80;;;;;;;9.13;52.78;97224.41;10286508;28;20161;-49
2023/12/24 05:54:54;;;;;;;5.25;4.45;;;;;;;9.30;52.67;97250.28;10289785;28;20104;-49
2023/12/24 05:59:53;;;;;;;5.97;5.10;;;;;;;9.26;52.34;97227.81;10288229;28;20038;-50
2023/12/24 06:04:52;;;;;;;11.95;8.93;;;;;;;8.82;52.01;97171.91;10301149;28;20515;-52
2023/12/24 06:09:51;;;;;;;14.85;9.88;;;;;;;9.44;51.51;97246.75;10286803;28;20457;-51
2023/12/24 06:14:50;;;;;;;8.30;6.80;;;;;;;9.59;51.23;97258.78;10285004;28;20448;-50
2023/12/24 06:19:49;;;;;;;8.30;7.13;;;;;;;9.43;50.96;97256.25;10285691;28;20408;-51
2023/12/24 06:24:48;;;;;;;40.17;24.10;;;;;;;9.40;52.29;97226.94;10287442;28;20041;-51
2023/12/24 06:29:48;;;;;;;59.35;39.00;;;;;;;9.31;53.56;97257.16;10286322;28;20141;-49
2023/12/24 06:34:46;;;;;;;38.15;28.95;;;;;;;9.28;53.80;97277.91;10283424;28;20057;-49
2023/12/24 06:39:45;;;;;;;64.50;42.25;;;;;;;9.34;53.87;97298.56;10285551;28;20032;-49
2023/12/24 06:44:44;;;;;;;50.30;33.80;;;;;;;9.45;53.67;97321.84;10286287;28;20040;-50
2023/12/24 06:49:44;;;;;;;15.43;11.90;;;;;;;9.25;53.44;97283.03;10286564;28;20113;-49
2023/12/24 06:54:43;;;;;;;9.20;7.60;;;;;;;9.39;52.91;97303.75;10286435;28;20072;-50
2023/12/24 06:59:42;;;;;;;9.98;6.80;;;;;;;9.13;52.85;97252.88;10285971;28;20064;-49
2023/12/24 07:04:41;;;;;;;8.02;6.95;;;;;;;9.51;52.04;97298.53;10286428;28;20108;-49
2023/12/24 07:09:40;;;;;;;5.55;4.93;;;;;;;9.66;51.32;97326.09;10284958;28;20112;-50
2023/12/24 07:14:39;;;;;;;6.63;6.00;;;;;;;9.68;51.26;97314.00;10285841;28;20105;-49
2023/12/24 07:19:38;;;;;;;7.70;5.90;;;;;;;9.82;51.59;97319.13;10286579;28;20030;-49
2023/12/24 07:24:37;;;;;;;6.88;5.95;;;;;;;10.19;51.37;97357.78;10285413;28;20056;-50
2023/12/24 07:29:36;;;;;;;8.18;6.07;;;;;;;10.23;51.03;97354.31;10285616;28;20080;-50
2023/12/24 07:34:35;;;;;;;6.28;5.65;;;;;;;10.18;50.48;97328.41;10292477;28;20061;-49
2023/12/24 07:39:34;;;;;;;;;;;;;;;10.55;50.27;97377.44;10285140;28;20060;-50
2023/12/24 07:44:33;;;;;;;8.75;7.13;;;;;;;10.64;50.69;97355.75;10284957;28;19926;-50
2023/12/24 07:49:32;;;;;;;14.32;8.90;;;;;;;10.61;49.24;97319.44;10284081;28;20068;-50
2023/12/24 07:54:31;;;;;;;7.38;6.03;;;;;;;10.94;48.76;97351.19;10282476;28;20034;-49
2023/12/24 07:59:30;;;;;;;6.22;5.47;;;;;;;9.88;49.00;97144.56;10282427;28;20576;-49
2023/12/24 08:04:30;;;;;;;6.53;5.45;;;;;;;11.43;48.18;97369.78;10282569;28;20905;-50
2023/12/24 08:09:29;;;;;;;6.40;5.22;;;;;;;11.33;47.25;97336.13;10281326;28;20661;-49
2023/12/24 08:14:28;;;;;;;7.55;5.03;;;;;;;11.58;47.63;97358.34;10322533;28;20119;-50
2023/12/24 08:19:27;;;;;;;5.72;5.22;;;;;;;11.84;47.12;97342.44;10299795;28;20390;-51
2023/12/24 08:24:26;;;;;;;5.82;5.32;;;;;;;11.56;46.32;97263.97;10279182;28;20125;-52
2023/12/24 08:29:25;;;;;;;6.45;5.20;;;;;;;12.33;45.52;97366.97;10280797;28;20137;-50
2023/12/24 08:34:24;;;;;;;14.98;11.95;;;;;;;12.22;46.45;97330.66;10281346;28;20140;-51
2023/12/24 08:39:23;;;;;;;18.08;14.88;;;;;;;11.97;46.78;97353.56;10278712;28;20092;-49
2023/12/24 08:44:22;;;;;;;13.82;11.13;;;;;;;12.09;46.65;97370.75;10281154;28;20500;-49
2023/12/24 08:49:21;;;;;;;6.70;5.25;;;;;;;11.90;45.37;97328.53;10281681;28;20135;-50
2023/12/24 08:54:23;;;;;;;5.15;4.65;;;;;;;12.24;45.33;97347.09;10303831;28;20815;-51
2023/12/24 08:59:22;;;;;;;5.35;4.90;;;;;;;12.57;44.88;97331.91;10279923;28;20061;-51
2023/12/24 09:04:21;;;;;;;7.35;5.00;;;;;;;11.84;44.41;97163.06;10309541;28;20048;-51
2023/12/24 09:09:20;;;;;;;6.15;5.50;;;;;;;12.93;43.71;97329.59;10321789;28;20091;-49
2023/12/24 09:14:19;;;;;;;5.32;4.70;;;;;;;12.70;43.27;97276.16;10321052;28;20148;-50
2023/12/24 09:19:18;;;;;;;5.60;5.10;;;;;;;12.81;43.38;97295.94;10300138;28;20054;-50
2023/12/24 09:24:17;;;;;;;5.60;5.20;;;;;;;13.04;42.94;97351.09;10241882;28;1109550;-49
2023/12/24 09:29:20;;;;;;;4.53;4.22;;;;;;;12.79;42.68;97306.41;10282893;28;20046;-49
2023/12/24 09:34:19;;;;;;;5.50;4.43;;;;;;;12.95;42.41;97312.16;10282278;28;20113;-50
2023/12/24 09:39:18;;;;;;;5.45;5.07;;;;;;;12.96;42.31;97318.25;10281864;28;20137;-50
2023/12/24 09:44:17;;;;;;;6.57;5.47;;;;;;;12.94;42.88;97341.72;10282069;28;20663;-51
2023/12/24 09:49:16;;;;;;;5.43;4.93;;;;;;;12.89;42.33;97325.31;10322912;28;20116;-51
2023/12/24 09:54:15;;;;;;;5.00;4.57;;;;;;;12.85;43.22;97306.28;10305216;28;20021;-51
2023/12/24 09:59:14;;;;;;;6.35;5.80;;;;;;;12.89;42.60;97289.72;10280535;28;20045;-49
2023/12/24 10:04:13;;;;;;;;;;;;;;;13.08;42.38;97289.38;10282458;28;20109;-50
2023/12/24 10:09:12;;;;;;;7.53;6.72;;;;;;;12.89;42.19;97249.81;10282768;28;19960;-49
2023/12/24 10:14:12;;;;;;;6.90;6.05;;;;;;;13.07;42.32;97262.47;10285502;28;20113;-50
2023/12/24 10:19:25;;;;;;;6.90;6.20;;;;;;;13.15;41.52;97284.03;10288395;28;20053;-50
2023/12/24 10:24:24;;;;;;;6.45;5.80;;;;;;;13.12;42.02;97267.59;10288082;28;20129;-49
2023/12/24 10:29:23;;;;;;;6.35;5.85;;;;;;;13.17;40.68;97275.34;10287975;28;20148;-51
2023/12/24 10:34:22;;;;;;;5.70;5.30;;;;;;;12.46;41.06;97130.81;10288050;28;20092;-50
2023/12/24 10:39:24;;;;;;;6.35;5.85;;;;;;;13.64;41.38;97307.44;10288172;28;20068;-51
2023/12/24 10:44:23;;;;;;;6.03;5.53;;;;;;;13.55;40.26;97274.59;10283893;28;20454;-51
2023/12/24 10:49:22;;;;;;;6.93;6.43;;;;;;;13.85;40.35;97285.28;10283607;28;20057;-50
2023/12/24 10:54:22;;;;;;;13.82;11.18;;;;;;;13.93;39.46;97262.47;10285178;28;20104;-50
2023/12/24 10:59:46;;;;;;;6.40;5.90;;;;;;;13.57;40.58;97237.19;10283315;28;20052;-50
2023/12/24 11:04:46;;;;;;;5.78;5.32;;;;;;;13.64;40.30;97265.75;10284065;28;20208;-49
2023/12/24 11:09:45;;;;;;;6.60;6.20;;;;;;;13.82;39.96;97248.81;10285917;28;20153;-50
2023/12/24 11:14:45;;;;;;;7.53;5.65;;;;;;;14.05;40.38;97245.69;10288645;28;20079;-50
2023/12/24 11:19:44;;;;;;;6.15;5.55;;;;;;;14.22;39.76;97248.78;10284798;28;20128;-49
2023/12/24 11:24:44;;;;;;;9.65;7.05;;;;;;;14.16;39.53;97230.66;10284895;28;20163;-50
2023/12/24 11:29:43;;;;;;;6.50;6.00;;;;;;;14.22;39.20;97229.63;10285473;28;20068;-51
2023/12/24 11:34:41;;;;;;;7.05;6.45;;;;;;;14.09;39.57;97210.81;10285162;28;20050;-51
2023/12/24 11:40:12;;;;;;;6.95;6.13;;;;;;;14.28;40.17;97229.50;10285677;28;20038;-49
2023/12/24 11:45:17;;;;;;;;;;;;;;;14.33;39.57;97233.69;10284080;28;20117;-49
2023/12/24 11:50:16;;;;;;;5.97;5.30;;;;;;;14.22;39.15;97203.53;10283253;28;20003;-50
2023/12/24 11:55:16;;;;;;;7.57;6.80;;;;;;;14.60;39.86;97231.31;10284647;28;20144;-49
2023/12/24 12:00:28;;;;;;;8.05;7.25;;;;;;;14.59;39.34;97238.31;10281256;28;20113;-50
2023/12/24 12:05:27;;;;;;;7.68;6.97;;;;;;;14.26;39.49;97244.34;10283537;28;20524;-49
2023/12/24 12:10:26;;;;;;;;;;;;;;;14.29;39.35;97245.13;10285759;28;20493;-50
2023/12/24 12:15:27;;;;;;;8.00;7.20;;;;;;;14.29;39.87;97245.13;10297190;28;20368;-49
2023/12/24 12:20:25;;;;;;;8.50;7.53;;;;;;;13.94;39.50;97212.91;10283491;28;20454;-51
2023/12/24 12:25:24;;;;;;;8.60;7.70;;;;;;;13.49;39.31;97192.16;10284578;28;20605;-50
2023/12/24 12:30:23;;;;;;;11.65;6.15;;;;;;;14.03;39.71;97250.97;10283844;28;20034;-49
2023/12/24 12:35:22;;;;;;;8.07;7.28;;;;;;;13.85;40.30;97213.09;10282409;28;20084;-50
2023/12/24 12:40:21;;;;;;;10.10;7.03;;;;;;;13.31;40.41;97094.38;10283950;28;20030;-50
2023/12/24 12:45:21;;;;;;;13.68;12.38;;;;;;;13.94;40.00;97233.75;10283571;28;20116;-49
2023/12/24 12:50:20;;;;;;;18.70;12.52;;;;;;;14.11;40.89;97250.78;10283255;28;20124;-50
2023/12/24 12:55:21;;;;;;;10.65;7.53;;;;;;;14.28;40.45;97238.19;10284391;28;20054;-49
2023/12/24 13:00:22;;;;;;;8.05;6.10;;;;;;;14.12;39.97;97190.72;10284277;28;20065;-50
2023/12/24 13:05:32;;;;;;;7.85;6.38;;;;;;;14.31;39.95;97178.09;10281284;28;20122;-51
2023/12/24 13:10:35;;;;;;;7.65;6.05;;;;;;;14.78;39.73;97233.50;10284586;28;20080;-51
2023/12/24 13:15:34;;;;;;;7.72;6.68;;;;;;;14.52;39.60;97176.69;10283995;28;20086;-51
2023/12/24 13:20:34;;;;;;;7.43;6.72;;;;;;;14.69;39.53;97181.47;10282834;28;20085;-51
2023/12/24 13:25:32;;;;;;;;;;;;;;;14.98;39.63;97225.09;10282052;28;20477;-49
2023/12/24 13:30:31;;;;;;;7.85;7.10;;;;;;;14.89;39.98;97190.53;10283557;28;20340;-49
2023/12/24 13:35:39;;;;;;;;;;;;;;;15.02;39.63;97203.22;10283760;28;20569;-49
2023/12/24 13:40:40;;;;;;;12.30;9.32;;;;;;;14.80;39.22;97192.53;10283520;28;19951;-52
2023/12/24 13:45:40;;;;;;;7.63;6.80;;;;;;;14.61;39.40;97159.91;10280684;28;20531;-52
2023/12/24 13:50:38;;;;;;;12.35;9.15;;;;;;;14.64;39.49;97180.72;10289361;28;20443;-50
2023/12/24 13:55:38;;;;;;;11.95;9.55;;;;;;;14.63;40.14;97190.28;10284023;28;20433;-49
2023/12/24 14:00:39;;;;;;;13.27;10.55;;;;;;;14.24;40.46;97136.50;10286023;28;20685;-49
2023/12/24 14:05:40;;;;;;;18.52;15.40;;;;;;;13.91;40.69;97128.63;10283847;28;20117;-49
2023/12/24 14:10:39;;;;;;;29.77;19.33;;;;;;;14.18;40.96;97159.25;10284717;28;20064;-49
2023/12/24 14:15:37;;;;;;;26.17;20.08;;;;;;;14.25;41.69;97190.44;10287909;28;20030;-49
2023/12/24 14:20:37;;;;;;;16.38;11.80;;;;;;;13.89;42.07;97162.59;10288283;28;21391;-51
2023/12/24 14:25:36;;;;;;;16.20;11.90;;;;;;;13.76;43.02;97206.34;10284089;28;20117;-49
2023/12/24 14:30:35;;;;;;;10.18;9.07;;;;;;;12.94;43.01;97094.31;10285156;28;20025;-51
2023/12/24 14:35:34;;;;;;;16.35;11.52;;;;;;;13.45;42.82;97164.44;10285616;28;20545;-51
2023/12/24 14:40:33;;;;;;;32.95;22.08;;;;;;;13.42;43.98;97190.56;10282864;28;20049;-49
2023/12/24 14:45:32;;;;;;;47.85;34.33;;;;;;;13.17;44.76;97198.03;10284868;28;20034;-49
2023/12/24 14:50:31;;;;;;;51.67;34.42;;;;;;;12.99;45.15;97211.41;10286922;28;20026;-51
2023/12/24 14:55:30;;;;;;;43.67;28.90;;;;;;;12.80;45.52;97214.38;10285649;28;20041;-49
2023/12/24 15:00:29;;;;;;;29.58;20.88;;;;;;;12.65;46.06;97225.94;10286438;28;20029;-49
2023/12/24 15:05:28;;;;;;;19.65;15.65;;;;;;;12.05;46.41;97154.06;10278448;28;20026;-49
2023/12/24 15:10:27;;;;;;;39.60;26.80;;;;;;;11.94;48.06;97181.97;10285479;28;20117;-51
2023/12/24 15:15:28;;;;;;;35.15;25.98;;;;;;;11.62;48.89;97178.13;10286746;28;20034;-50
2023/12/24 15:20:27;;;;;;;34.42;23.77;;;;;;;11.67;48.75;97237.84;10286164;28;20069;-50
2023/12/24 15:25:27;;;;;;;40.30;29.00;;;;;;;11.38;49.47;97253.78;10300931;28;20467;-49
2023/12/24 15:30:27;;;;;;;28.92;20.05;;;;;;;11.47;49.76;97266.66;10284929;28;20057;-51
2023/12/24 15:35:26;;;;;;;39.20;28.58;;;;;;;11.64;50.12;97261.25;10280929;28;20061;-50
2023/12/24 15:40:25;;;;;;;33.72;21.83;;;;;;;11.07;49.93;97183.19;10282775;28;20116;-51
2023/12/24 15:45:24;;;;;;;25.17;18.25;;;;;;;11.22;50.84;97266.09;10286007;28;20046;-52
2023/12/24 15:50:24;;;;;;;41.13;27.38;;;;;;;10.97;51.38;97248.19;10285177;28;20180;-50
2023/12/24 15:55:23;;;;;;;47.42;32.10;;;;;;;10.69;51.33;97233.75;10283932;28;20497;-51
2023/12/24 16:00:22;;;;;;;56.35;41.17;;;;;;;10.80;52.32;97281.25;10279632;28;20473;-52
2023/12/24 16:05:21;;;;;;;73.20;49.92;;;;;;;10.30;53.76;97251.41;10282803;28;20045;-54
2023/12/24 16:10:20;;;;;;;;;;;;;;;10.28;54.30;97294.63;10284315;28;20107;-49
2023/12/24 16:15:19;;;;;;;72.85;49.78;;;;;;;9.10;54.56;97138.16;10284673;28;19917;-50
2023/12/24 16:20:18;;;;;;;77.35;49.05;;;;;;;9.56;55.40;97229.44;10284779;28;20021;-51
2023/12/24 16:25:17;;;;;;;67.82;45.47;;;;;;;9.92;54.13;97268.09;10283272;28;20121;-51
2023/12/24 16:30:16;;;;;;;59.70;37.90;;;;;;;9.72;55.24;97253.53;10283245;28;20580;-50
2023/12/24 16:35:15;;;;;;;48.85;31.73;;;;;;;9.69;55.24;97263.88;10283921;28;20053;-50
2023/12/24 16:40:14;;;;;;;62.10;44.15;;;;;;;9.71;55.95;97277.69;10281014;28;20113;-51
2023/12/24 16:45:18;;;;;;;77.60;45.42;;;;;;;9.52;56.09;97276.94;10284297;28;20034;-51
2023/12/24 16:50:18;;;;;;;79.28;48.63;;;;;;;9.71;56.73;97326.06;10283334;28;20121;-50
2023/12/24 16:55:17;;;;;;;87.38;53.05;;;;;;;9.71;56.45;97333.84;10281135;28;20049;-51
2023/12/24 17:00:17;;;;;;;84.88;56.38;;;;;;;9.43;57.17;97315.81;10280573;28;20049;-50
2023/12/24 17:05:16;;;;;;;75.20;52.00;;;;;;;9.48;57.04;97336.53;10281342;28;20121;-51
2023/12/24 17:10:15;;;;;;;77.32;54.20;;;;;;;9.04;58.82;97308.97;10280492;28;20109;-49
2023/12/24 17:15:18;;;;;;;62.70;42.67;;;;;;;8.97;58.30;97322.81;10280088;28;20100;-50
2023/12/24 17:20:17;;;;;;;57.33;41.35;;;;;;;9.07;59.37;97342.66;10282219;28;20893;-51
2023/12/24 17:25:16;;;;;;;59.47;40.90;;;;;;;8.88;59.94;97334.91;10288118;28;20018;-48
2023/12/24 17:30:16;;;;;;;63.33;41.05;;;;;;;8.88;59.42;97337.50;10288228;28;20030;-49
2023/12/24 17:35:19;;;;;;;56.75;39.83;;;;;;;8.96;59.41;97346.97;10290224;28;20065;-50
2023/12/24 17:40:18;;;;;;;20.30;12.40;;;;;;;8.92;59.32;97333.16;10289810;28;20068;-49
2023/12/24 17:45:17;;;;;;;44.42;28.73;;;;;;;9.62;58.36;97363.22;10289906;28;20105;-49
2023/12/24 17:50:16;;;;;;;;;;;;;;;10.07;57.05;97374.25;10290956;28;20461;-49
2023/12/24 17:55:15;;;;;;;20.73;11.80;;;;;;;9.75;56.39;97336.41;10288530;28;20300;-49
2023/12/24 18:00:15;;;;;;;46.97;29.38;;;;;;;10.25;56.41;97372.47;10289729;28;20068;-50
2023/12/24 18:05:14;;;;;;;61.15;37.83;;;;;;;10.07;55.96;97350.94;10289030;28;20733;-49
2023/12/24 18:10:15;;;;;;;34.40;23.38;;;;;;;10.53;55.77;97368.81;10289205;28;20785;-49
2023/12/24 18:15:14;;;;;;;24.00;15.82;;;;;;;10.98;54.56;97384.91;10286317;28;20567;-49
2023/12/24 18:20:14;;;;;;;10.02;6.32;;;;;;;11.57;52.60;97403.44;10288081;28;20494;-49
2023/12/24 18:25:13;;;;;;;12.82;8.32;;;;;;;11.83;51.63;97356.34;10286902;28;20069;-49
2023/12/24 18:30:12;;;;;;;14.05;7.68;;;;;;;12.30;50.65;97403.44;10288489;28;20061;-48
2023/12/24 18:35:11;;;;;;;;;;;;;;;12.46;50.21;97422.28;10288161;28;20117;-51
2023/12/24 18:40:10;;;;;;;15.50;9.90;;;;;;;12.64;49.78;97431.59;10287527;28;19921;-49
2023/12/24 18:45:09;;;;;;;11.85;7.70;;;;;;;12.76;49.27;97405.38;10287799;28;20480;-49
2023/12/24 18:50:09;;;;;;;11.40;6.28;;;;;;;11.96;49.03;97244.34;10287755;28;20386;-52
2023/12/24 18:55:08;;;;;;;12.35;6.63;;;;;;;12.59;48.68;97353.56;10286516;28;20065;-51
2023/12/24 19:00:07;;;;;;;13.77;6.95;;;;;;;12.80;48.62;97372.34;10286927;28;20113;-49
2023/12/24 19:05:07;;;;;;;12.30;7.50;;;;;;;12.82;48.47;97381.84;10282156;28;20125;-49
2023/12/24 19:10:06;;;;;;;15.27;7.38;;;;;;;12.88;48.76;97388.69;10284044;28;20153;-51
2023/12/24 19:15:06;;;;;;;9.57;6.50;;;;;;;11.77;49.00;97251.56;10282983;28;20057;-51
2023/12/24 19:20:06;;;;;;;10.95;5.80;;;;;;;12.62;49.30;97397.75;10283705;28;20057;-49
2023/12/24 19:25:05;;;;;;;26.60;14.90;;;;;;;12.30;49.29;97362.66;10274534;28;20141;-50
2023/12/24 19:30:04;;;;;;;18.35;9.32;;;;;;;12.52;49.53;97417.00;10286271;28;20060;-50
2023/12/24 19:35:04;;;;;;;11.63;6.18;;;;;;;12.27;50.02;97396.53;10285201;28;20584;-50
2023/12/24 19:40:03;;;;;;;12.35;7.25;;;;;;;12.24;50.32;97391.31;10284829;28;20472;-50
2023/12/24 19:45:02;;;;;;;9.95;6.07;;;;;;;12.25;50.36;97393.06;10285133;28;20049;-49
2023/12/24 19:50:01;;;;;;;12.68;6.82;;;;;;;12.20;50.93;97387.03;10286585;28;20113;-49
2023/12/24 19:55:00;;;;;;;12.20;6.32;;;;;;;12.04;51.40;97380.31;10281788;28;20037;-49
2023/12/24 19:59:59;;;;;;;14.77;6.68;;;;;;;12.03;50.83;97378.63;10285668;28;20021;-49
2023/12/24 20:04:58;;;;;;;17.15;11.50;;;;;;;12.15;50.79;97401.00;10285952;28;20030;-49
2023/12/24 20:09:57;;;;;;;31.63;13.80;;;;;;;12.40;50.19;97396.38;10285264;28;20024;-50
2023/12/24 20:14:56;;;;;;;15.00;8.93;;;;;;;12.52;49.89;97390.97;10284209;28;20126;-49
2023/12/24 20:19:54;;;;;;;10.10;6.65;;;;;;;12.07;50.10;97310.94;10284162;28;20084;-49
2023/12/24 20:24:53;;;;;;;10.23;6.40;;;;;;;12.34;50.15;97386.03;10279255;28;20124;-49
2023/12/24 20:29:52;;;;;;;14.07;7.18;;;;;;;12.48;50.24;97417.94;10283351;28;20402;-49
2023/12/24 20:34:51;;;;;;;18.70;10.68;;;;;;;12.14;50.68;97401.91;10278129;28;20019;-50
2023/12/24 20:39:50;;;;;;;14.05;9.05;;;;;;;11.86;51.18;97410.88;10274521;28;20068;-50
2023/12/24 20:44:49;;;;;;;15.50;9.85;;;;;;;12.09;50.61;97412.34;10278652;28;20069;-51
2023/12/24 20:49:48;;;;;;;16.10;8.30;;;;;;;12.20;50.48;97414.81;10277119;28;20034;-49
2023/12/24 20:54:50;;;;;;;19.08;11.57;;;;;;;12.06;50.32;97401.97;10280758;28;20512;-51
2023/12/24 20:59:52;;;;;;;66.90;42.50;;;;;;;12.42;50.38;97447.50;10278800;28;20109;-50
2023/12/24 21:04:50;;;;;;;14.32;8.48;;;;;;;12.47;50.18;97429.22;10278899;28;20158;-49
2023/12/24 21:09:49;;;;;;;11.95;8.38;;;;;;;11.42;49.92;97271.91;10281223;28;20046;-49
2023/12/24 21:14:52;;;;;;;28.00;14.70;;;;;;;12.09;49.92;97407.16;10283020;28;20052;-51
2023/12/24 21:19:51;;;;;;;59.55;33.80;;;;;;;12.27;49.84;97448.59;10278991;28;20068;-50
2023/12/24 21:24:50;;;;;;;34.33;19.60;;;;;;;12.31;50.02;97462.41;10286319;28;20052;-49
2023/12/24 21:29:49;;;;;;;19.42;10.60;;;;;;;12.23;49.98;97449.47;10283820;28;20466;-49
2023/12/24 21:34:47;;;;;;;25.48;13.73;;;;;;;12.10;50.05;97446.13;10282754;28;20064;-50
2023/12/24 21:39:46;;;;;;;10.77;6.30;;;;;;;11.80;50.12;97403.13;10281761;28;20052;-49
2023/12/24 21:44:45;;;;;;;36.83;24.55;;;;;;;11.96;49.96;97461.03;10282694;28;20038;-50
2023/12/24 21:49:45;;;;;;;109.57;63.05;;;;;;;12.10;49.80;97479.94;10282752;28;20038;-50
2023/12/24 21:54:44;;;;;;;57.35;32.85;;;;;;;12.12;49.90;97453.91;10287122;28;20052;-50
2023/12/24 21:59:43;;;;;;;13.38;11.10;;;;;;;12.15;49.70;97456.47;10286496;28;20032;-50
2023/12/24 22:04:41;;;;;;;11.50;6.35;;;;;;;11.12;49.56;97265.34;10281458;28;20497;-50
2023/12/24 22:09:41;;;;;;;13.98;8.13;;;;;;;12.02;49.95;97434.97;10284234;28;20120;-49
2023/12/24 22:14:39;;;;;;;12.40;6.32;;;;;;;11.97;49.64;97407.28;10287568;28;20108;-50
2023/12/24 22:19:39;;;;;;;9.52;5.80;;;;;;;11.99;49.73;97421.97;10285309;28;20026;-51
2023/12/24 22:24:38;;;;;;;;;;;;;;;11.83;50.13;97426.53;10289960;28;20074;-49
2023/12/24 22:29:40;;;;;;;22.53;11.97;;;;;;;10.91;50.97;97318.34;10288504;28;20028;-52
2023/12/24 22:34:39;;;;;;;19.58;11.73;;;;;;;11.34;51.83;97421.84;10288185;28;20140;-50
2023/12/24 22:39:38;;;;;;;22.83;16.08;;;;;;;10.85;52.40;97380.69;10287479;28;20026;-51
2023/12/24 22:44:38;;;;;;;27.75;17.33;;;;;;;10.01;53.66;97319.88;10284997;28;20409;-49
2023/12/24 22:49:37;;;;;;;28.58;19.13;;;;;;;10.23;55.02;97405.31;10279647;28;20500;-49
2023/12/24 22:54:36;;;;;;;25.85;16.63;;;;;;;9.99;55.19;97381.22;10280028;28;20769;-49
2023/12/24 22:59:36;;;;;;;35.33;22.02;;;;;;;9.86;56.70;97395.97;10284244;28;20037;-49
2023/12/24 23:04:35;;;;;;;22.85;13.07;;;;;;;7.72;56.82;97097.16;10283359;28;20116;-50
2023/12/24 23:09:34;;;;;;;22.20;14.23;;;;;;;9.31;56.88;97360.75;10283255;28;20125;-49